sensor_id;sensor_type;location;lat;lon;timestamp;pressure;altitude;pressure_sealevel;temperature;humidity
10392;BME280;5242;49.244;6.774;2022-09-12T00:02:51;99697.72;;;11.08;89.99
10392;BME280;5242;49.244;6.774;2022-09-12T00:10:23;99692.22;;;11.04;88.27
10392;BME280;5242;49.244;6.774;2022-09-12T00:17:55;99680.34;;;10.97;88.25
10392;BME280;5242;49.244;6.774;2022-09-12T00:25:26;99685.63;;;10.90;88.51
10392;BME280;5242;49.244;6.774;2022-09-12T00:33:00;99676.47;;;10.82;88.97
10392;BME280;5242;49.244;6.774;2022-09-12T00:40:32;99672.00;;;10.74;89.75
10392;BME280;5242;49.244;6.774;2022-09-12T00:48:03;99671.53;;;10.72;90.27
10392;BME280;5242;49.244;6.774;2022-09-12T00:55:42;99665.13;;;10.64;88.89
10392;BME280;5242;49.244;6.774;2022-09-12T01:03:21;99663.72;;;10.54;88.52
10392;BME280;5242;49.244;6.774;2022-09-12T01:10:53;99666.81;;;10.40;92.53
10392;BME280;5242;49.244;6.774;2022-09-12T01:18:41;99655.88;;;10.24;92.64
10392;BME280;5242;49.244;6.774;2022-09-12T01:34:17;99641.28;;;10.17;89.48
10392;BME280;5242;49.244;6.774;2022-09-12T01:42:11;99631.81;;;10.11;92.63
10392;BME280;5242;49.244;6.774;2022-09-12T01:49:58;99628.19;;;10.07;92.37
10392;BME280;5242;49.244;6.774;2022-09-12T01:57:36;99614.94;;;10.05;92.71
10392;BME280;5242;49.244;6.774;2022-09-12T02:05:17;99607.81;;;10.00;92.14
10392;BME280;5242;49.244;6.774;2022-09-12T02:20:29;99617.06;;;9.84;90.78
10392;BME280;5242;49.244;6.774;2022-09-12T02:28:26;99613.47;;;9.79;92.42
10392;BME280;5242;49.244;6.774;2022-09-12T02:43:41;99616.94;;;9.64;91.91
10392;BME280;5242;49.244;6.774;2022-09-12T02:51:13;99605.06;;;9.56;94.14
10392;BME280;5242;49.244;6.774;2022-09-12T02:58:45;99597.47;;;9.50;93.70
10392;BME280;5242;49.244;6.774;2022-09-12T03:06:29;99598.63;;;9.49;93.23
10392;BME280;5242;49.244;6.774;2022-09-12T03:22:29;99596.69;;;9.49;94.03
10392;BME280;5242;49.244;6.774;2022-09-12T03:30:07;99588.41;;;9.46;93.47
10392;BME280;5242;49.244;6.774;2022-09-12T03:37:38;99595.69;;;9.42;92.03
10392;BME280;5242;49.244;6.774;2022-09-12T03:45:10;99587.41;;;9.38;94.53
10392;BME280;5242;49.244;6.774;2022-09-12T03:52:41;99583.38;;;9.32;94.51
10392;BME280;5242;49.244;6.774;2022-09-12T04:00:13;99583.47;;;9.35;94.92
10392;BME280;5242;49.244;6.774;2022-09-12T04:07:50;99576.44;;;9.34;94.46
10392;BME280;5242;49.244;6.774;2022-09-12T04:15:21;99570.09;;;9.30;93.84
10392;BME280;5242;49.244;6.774;2022-09-12T04:22:53;99572.41;;;9.28;94.13
10392;BME280;5242;49.244;6.774;2022-09-12T04:30:24;99565.28;;;9.24;94.82
10392;BME280;5242;49.244;6.774;2022-09-12T04:37:56;99559.63;;;9.17;93.49
10392;BME280;5242;49.244;6.774;2022-09-12T04:45:27;99564.50;;;9.11;93.41
10392;BME280;5242;49.244;6.774;2022-09-12T04:52:59;99559.63;;;9.04;95.62
10392;BME280;5242;49.244;6.774;2022-09-12T05:00:32;99550.47;;;8.97;95.93
10392;BME280;5242;49.244;6.774;2022-09-12T05:08:03;99548.53;;;8.97;96.23
10392;BME280;5242;49.244;6.774;2022-09-12T05:15:35;99556.59;;;9.06;95.90
10392;BME280;5242;49.244;6.774;2022-09-12T05:23:07;99554.75;;;9.10;95.57
10392;BME280;5242;49.244;6.774;2022-09-12T05:30:38;99563.25;;;9.08;96.11
10392;BME280;5242;49.244;6.774;2022-09-12T05:38:10;99575.59;;;9.18;95.44
10392;BME280;5242;49.244;6.774;2022-09-12T05:45:41;99566.97;;;9.28;93.98
10392;BME280;5242;49.244;6.774;2022-09-12T05:53:13;99578.72;;;9.32;94.41
10392;BME280;5242;49.244;6.774;2022-09-12T06:00:44;99578.22;;;9.43;95.70
10392;BME280;5242;49.244;6.774;2022-09-12T06:08:15;99580.22;;;9.58;95.45
10392;BME280;5242;49.244;6.774;2022-09-12T06:15:47;99585.03;;;9.77;96.35
10392;BME280;5242;49.244;6.774;2022-09-12T06:23:18;99592.31;;;10.17;96.39
10392;BME280;5242;49.244;6.774;2022-09-12T06:30:50;99593.03;;;10.93;93.53
10392;BME280;5242;49.244;6.774;2022-09-12T06:38:21;99596.31;;;11.53;90.76
10392;BME280;5242;49.244;6.774;2022-09-12T06:45:53;99601.34;;;12.10;88.48
10392;BME280;5242;49.244;6.774;2022-09-12T06:53:25;99592.88;;;12.61;87.44
10392;BME280;5242;49.244;6.774;2022-09-12T07:08:46;99574.69;;;13.86;83.86
10392;BME280;5242;49.244;6.774;2022-09-12T07:16:17;99579.41;;;14.74;82.35
10392;BME280;5242;49.244;6.774;2022-09-12T07:23:50;99569.03;;;15.78;79.43
10392;BME280;5242;49.244;6.774;2022-09-12T07:31:23;99577.00;;;16.91;74.41
10392;BME280;5242;49.244;6.774;2022-09-12T07:38:56;99576.22;;;18.11;77.89
10392;BME280;5242;49.244;6.774;2022-09-12T07:46:29;69656.28;;;-145.40;100.00
10392;BME280;5242;49.244;6.774;2022-09-12T07:54:01;69656.28;;;-145.40;100.00
10392;BME280;5242;49.244;6.774;2022-09-12T08:01:33;69656.28;;;-145.40;100.00
10392;BME280;5242;49.244;6.774;2022-09-12T08:09:05;69656.28;;;-145.40;100.00
10392;BME280;5242;49.244;6.774;2022-09-12T08:16:38;69656.28;;;-145.40;100.00
10392;BME280;5242;49.244;6.774;2022-09-12T08:24:10;69656.28;;;-145.40;100.00
10392;BME280;5242;49.244;6.774;2022-09-12T08:31:42;69656.28;;;-145.40;100.00
10392;BME280;5242;49.244;6.774;2022-09-12T08:39:13;69656.28;;;-145.40;100.00
10392;BME280;5242;49.244;6.774;2022-09-12T08:54:36;69656.28;;;-145.40;100.00
10392;BME280;5242;49.244;6.774;2022-09-12T09:02:38;69656.28;;;-145.40;100.00
10392;BME280;5242;49.244;6.774;2022-09-12T09:10:30;69656.28;;;-145.40;100.00
10392;BME280;5242;49.244;6.774;2022-09-12T09:18:19;69656.28;;;-145.40;100.00
10392;BME280;5242;49.244;6.774;2022-09-12T09:33:46;69656.28;;;-145.40;100.00
10392;BME280;5242;49.244;6.774;2022-09-12T09:49:00;69656.28;;;-145.40;100.00
10392;BME280;5242;49.244;6.774;2022-09-12T09:56:36;69656.28;;;-145.40;100.00
10392;BME280;5242;49.244;6.774;2022-09-12T10:04:16;69656.28;;;-145.40;100.00
10392;BME280;5242;49.244;6.774;2022-09-12T10:11:51;69656.28;;;-145.40;100.00
10392;BME280;5242;49.244;6.774;2022-09-12T10:19:33;69656.28;;;-145.40;100.00
10392;BME280;5242;49.244;6.774;2022-09-12T10:27:06;69656.28;;;-145.40;100.00
10392;BME280;5242;49.244;6.774;2022-09-12T10:34:43;69656.28;;;-145.40;100.00
10392;BME280;5242;49.244;6.774;2022-09-12T10:42:15;69656.28;;;-145.40;100.00
10392;BME280;5242;49.244;6.774;2022-09-12T10:50:19;69656.28;;;-145.40;100.00
10392;BME280;5242;49.244;6.774;2022-09-12T10:58:17;69656.28;;;-145.40;100.00
10392;BME280;5242;49.244;6.774;2022-09-12T11:05:59;69656.28;;;-145.40;100.00
10392;BME280;5242;49.244;6.774;2022-09-12T11:45:03;69656.28;;;-145.40;100.00
10392;BME280;5242;49.244;6.774;2022-09-12T11:52:36;69656.28;;;-145.40;100.00
10392;BME280;5242;49.244;6.774;2022-09-12T12:08:07;69656.28;;;-145.40;100.00
10392;BME280;5242;49.244;6.774;2022-09-12T12:15:50;69656.28;;;-145.40;100.00
10392;BME280;5242;49.244;6.774;2022-09-12T12:23:32;69656.28;;;-145.40;100.00
10392;BME280;5242;49.244;6.774;2022-09-12T12:31:04;69656.28;;;-145.40;100.00
10392;BME280;5242;49.244;6.774;2022-09-12T12:38:37;69656.28;;;-145.40;100.00
10392;BME280;5242;49.244;6.774;2022-09-12T12:46:12;69656.28;;;-145.40;100.00
10392;BME280;5242;49.244;6.774;2022-09-12T12:53:44;69656.28;;;-145.40;100.00
10392;BME280;5242;49.244;6.774;2022-09-12T13:01:17;69656.28;;;-145.40;100.00
10392;BME280;5242;49.244;6.774;2022-09-12T13:08:57;69656.28;;;-145.40;100.00
10392;BME280;5242;49.244;6.774;2022-09-12T13:16:36;69656.28;;;-145.40;100.00
10392;BME280;5242;49.244;6.774;2022-09-12T13:24:15;69656.28;;;-145.40;100.00
10392;BME280;5242;49.244;6.774;2022-09-12T13:31:51;69656.28;;;-145.40;100.00
10392;BME280;5242;49.244;6.774;2022-09-12T13:39:28;69656.28;;;-145.40;100.00
10392;BME280;5242;49.244;6.774;2022-09-12T13:47:01;69656.28;;;-145.40;100.00
10392;BME280;5242;49.244;6.774;2022-09-12T13:54:34;69656.28;;;-145.40;100.00
10392;BME280;5242;49.244;6.774;2022-09-12T14:02:18;69656.28;;;-145.40;100.00
10392;BME280;5242;49.244;6.774;2022-09-12T14:09:55;69656.28;;;-145.40;100.00
10392;BME280;5242;49.244;6.774;2022-09-12T14:17:34;69656.28;;;-145.40;100.00
10392;BME280;5242;49.244;6.774;2022-09-12T14:25:13;69656.28;;;-145.40;100.00
10392;BME280;5242;49.244;6.774;2022-09-12T14:48:17;69656.28;;;-145.40;100.00
10392;BME280;5242;49.244;6.774;2022-09-12T15:03:30;69656.28;;;-145.40;100.00
10392;BME280;5242;49.244;6.774;2022-09-12T15:11:05;69656.28;;;-145.40;100.00
10392;BME280;5242;49.244;6.774;2022-09-12T15:18:36;69656.28;;;-145.40;100.00
10392;BME280;5242;49.244;6.774;2022-09-12T15:26:11;69656.28;;;-145.40;100.00
10392;BME280;5242;49.244;6.774;2022-09-12T15:33:43;69656.28;;;-145.40;100.00
10392;BME280;5242;49.244;6.774;2022-09-12T15:48:47;69656.28;;;-145.40;100.00
10392;BME280;5242;49.244;6.774;2022-09-12T15:56:20;69656.28;;;-145.40;100.00
10392;BME280;5242;49.244;6.774;2022-09-12T16:03:52;69656.28;;;-145.40;100.00
10392;BME280;5242;49.244;6.774;2022-09-12T16:11:25;69656.28;;;-145.40;100.00
10392;BME280;5242;49.244;6.774;2022-09-12T16:18:57;69656.28;;;-145.40;100.00
10392;BME280;5242;49.244;6.774;2022-09-12T16:26:29;69656.28;;;-145.40;100.00
10392;BME280;5242;49.244;6.774;2022-09-12T16:34:00;69656.28;;;-145.40;100.00
10392;BME280;5242;49.244;6.774;2022-09-12T16:41:32;69656.28;;;-145.40;100.00
10392;BME280;5242;49.244;6.774;2022-09-12T16:49:03;69656.28;;;-145.40;100.00
10392;BME280;5242;49.244;6.774;2022-09-12T16:56:36;69656.28;;;-145.40;100.00
10392;BME280;5242;49.244;6.774;2022-09-12T17:04:08;69656.28;;;-145.40;100.00
10392;BME280;5242;49.244;6.774;2022-09-12T17:11:40;69656.28;;;-145.40;100.00
10392;BME280;5242;49.244;6.774;2022-09-12T17:19:20;69656.28;;;-145.40;100.00
10392;BME280;5242;49.244;6.774;2022-09-12T17:26:52;69656.28;;;-145.40;100.00
10392;BME280;5242;49.244;6.774;2022-09-12T17:34:23;69656.28;;;-145.40;100.00
10392;BME280;5242;49.244;6.774;2022-09-12T17:41:56;69656.28;;;-145.40;100.00
10392;BME280;5242;49.244;6.774;2022-09-12T17:49:29;69656.28;;;-145.40;100.00
10392;BME280;5242;49.244;6.774;2022-09-12T17:57:00;69656.28;;;-145.40;100.00
10392;BME280;5242;49.244;6.774;2022-09-12T18:04:31;69656.28;;;-145.40;100.00
10392;BME280;5242;49.244;6.774;2022-09-12T18:12:04;69656.28;;;-145.40;100.00
10392;BME280;5242;49.244;6.774;2022-09-12T18:19:35;69656.28;;;-145.40;100.00
10392;BME280;5242;49.244;6.774;2022-09-12T18:27:07;69656.28;;;-145.40;100.00
10392;BME280;5242;49.244;6.774;2022-09-12T18:34:38;69656.28;;;-145.40;100.00
10392;BME280;5242;49.244;6.774;2022-09-12T18:42:09;69656.28;;;-145.40;100.00
10392;BME280;5242;49.244;6.774;2022-09-12T18:49:41;69656.28;;;-145.40;100.00
10392;BME280;5242;49.244;6.774;2022-09-12T18:57:12;69656.28;;;-145.40;100.00
10392;BME280;5242;49.244;6.774;2022-09-12T19:04:44;69656.28;;;-145.40;100.00
10392;BME280;5242;49.244;6.774;2022-09-12T19:12:15;69656.28;;;-145.40;100.00
10392;BME280;5242;49.244;6.774;2022-09-12T19:19:46;69656.28;;;-145.40;100.00
10392;BME280;5242;49.244;6.774;2022-09-12T19:27:18;69656.28;;;-145.40;100.00
10392;BME280;5242;49.244;6.774;2022-09-12T19:34:49;69656.28;;;-145.40;100.00
10392;BME280;5242;49.244;6.774;2022-09-12T19:42:20;69656.28;;;-145.40;100.00
10392;BME280;5242;49.244;6.774;2022-09-12T19:49:52;69656.28;;;-145.40;100.00
10392;BME280;5242;49.244;6.774;2022-09-12T19:57:24;69656.28;;;-145.40;100.00
10392;BME280;5242;49.244;6.774;2022-09-12T20:04:55;69656.28;;;-145.40;100.00
10392;BME280;5242;49.244;6.774;2022-09-12T20:12:27;69656.28;;;-145.40;100.00
10392;BME280;5242;49.244;6.774;2022-09-12T20:19:59;69656.28;;;-145.40;100.00
10392;BME280;5242;49.244;6.774;2022-09-12T20:27:30;69656.28;;;-145.40;100.00
10392;BME280;5242;49.244;6.774;2022-09-12T20:35:02;69656.28;;;-145.40;100.00
10392;BME280;5242;49.244;6.774;2022-09-12T20:42:34;69656.28;;;-145.40;100.00
10392;BME280;5242;49.244;6.774;2022-09-12T20:50:06;69656.28;;;-145.40;100.00
10392;BME280;5242;49.244;6.774;2022-09-12T20:57:37;69656.28;;;-145.40;100.00
10392;BME280;5242;49.244;6.774;2022-09-12T21:05:09;69656.28;;;-145.40;100.00
10392;BME280;5242;49.244;6.774;2022-09-12T21:12:40;69656.28;;;-145.40;100.00
10392;BME280;5242;49.244;6.774;2022-09-12T21:20:11;69656.28;;;-145.40;100.00
10392;BME280;5242;49.244;6.774;2022-09-12T21:27:43;69656.28;;;-145.40;100.00
10392;BME280;5242;49.244;6.774;2022-09-12T21:35:15;69656.28;;;-145.40;100.00
10392;BME280;5242;49.244;6.774;2022-09-12T21:42:47;69656.28;;;-145.40;100.00
10392;BME280;5242;49.244;6.774;2022-09-12T21:50:19;69656.28;;;-145.40;100.00
10392;BME280;5242;49.244;6.774;2022-09-12T21:57:51;69656.28;;;-145.40;100.00
10392;BME280;5242;49.244;6.774;2022-09-12T22:05:22;69656.28;;;-145.40;100.00
10392;BME280;5242;49.244;6.774;2022-09-12T22:12:54;69656.28;;;-145.40;100.00
10392;BME280;5242;49.244;6.774;2022-09-12T22:20:26;69656.28;;;-145.40;100.00
10392;BME280;5242;49.244;6.774;2022-09-12T22:27:57;69656.28;;;-145.40;100.00
10392;BME280;5242;49.244;6.774;2022-09-12T22:35:29;69656.28;;;-145.40;100.00
10392;BME280;5242;49.244;6.774;2022-09-12T22:43:01;69656.28;;;-145.40;100.00
10392;BME280;5242;49.244;6.774;2022-09-12T22:50:32;69656.28;;;-145.40;100.00
10392;BME280;5242;49.244;6.774;2022-09-12T22:58:03;69656.28;;;-145.40;100.00
10392;BME280;5242;49.244;6.774;2022-09-12T23:05:35;69656.28;;;-145.40;100.00
10392;BME280;5242;49.244;6.774;2022-09-12T23:13:07;69656.28;;;-145.40;100.00
10392;BME280;5242;49.244;6.774;2022-09-12T23:20:38;69656.28;;;-145.40;100.00
10392;BME280;5242;49.244;6.774;2022-09-12T23:28:09;69656.28;;;-145.40;100.00
10392;BME280;5242;49.244;6.774;2022-09-12T23:35:44;69656.28;;;-145.40;100.00
10392;BME280;5242;49.244;6.774;2022-09-12T23:43:16;69656.28;;;-145.40;100.00
10392;BME280;5242;49.244;6.774;2022-09-12T23:50:48;69656.28;;;-145.40;100.00
10392;BME280;5242;49.244;6.774;2022-09-12T23:58:19;69656.28;;;-145.40;100.00
